Time;durP1;ratioP1;P1;durP2;ratioP2;P2;SDS_P1;SDS_P2;PMS_P1;PMS_P2;Temp;Humidity;BMP_temperature;BMP_pressure;BME280_temperature;BME280_humidity;BME280_pressure;Samples;Min_cycle;Max_cycle;Signal;HPM_P1;HPM_P2
2021/11/25 04:35:41;;;;;;;20.38;16.40;;;6.40;99.90;;;;;;4879329;29;20068;-82
2021/11/25 04:38:16;;;;;;;22.25;18.08;;;6.40;99.90;;;;;;4880916;29;20497;-86
2021/11/25 04:40:50;;;;;;;26.58;20.65;;;6.40;99.90;;;;;;4881164;29;20116;-89
2021/11/25 05:24:34;;;;;;;28.02;20.33;;;6.40;99.90;;;;;;4842633;29;20147;-88
2021/11/25 05:31:25;;;;;;;25.80;21.23;;;6.40;99.90;;;;;;4842103;29;20086;-85
2021/11/25 05:33:52;;;;;;;24.25;19.73;;;6.40;99.90;;;;;;4858008;29;20483;-84
2021/11/25 05:37:07;;;;;;;26.73;21.00;;;6.40;99.90;;;;;;4855808;29;20040;-88
2021/11/25 05:39:53;;;;;;;25.98;20.60;;;6.30;99.90;;;;;;4840910;29;20442;-84
2021/11/25 05:42:19;;;;;;;25.98;20.27;;;6.40;99.90;;;;;;4857125;29;20068;-78
2021/11/25 05:44:45;;;;;;;24.60;20.08;;;6.40;99.90;;;;;;4876112;29;20501;-81
2021/11/25 05:47:10;;;;;;;24.95;20.00;;;6.40;99.90;;;;;;4878434;29;20033;-86
2021/11/25 05:49:37;;;;;;;25.05;20.25;;;6.40;99.90;;;;;;4879747;29;20029;-80
2021/11/25 05:52:03;;;;;;;26.08;21.13;;;6.50;99.90;;;;;;4885928;29;20032;-76
2021/11/25 05:54:28;;;;;;;25.90;21.02;;;6.50;99.90;;;;;;4883430;29;20751;-73
2021/11/25 05:56:54;;;;;;;23.15;19.38;;;6.50;99.90;;;;;;4892525;29;20478;-75
2021/11/25 05:59:19;;;;;;;22.92;19.17;;;6.50;99.90;;;;;;4897314;29;20036;-78
2021/11/25 06:01:46;;;;;;;24.48;20.08;;;6.50;99.90;;;;;;4887882;29;20454;-78
2021/11/25 06:04:12;;;;;;;25.02;19.80;;;6.50;99.90;;;;;;4878208;29;20037;-80
2021/11/25 06:06:38;;;;;;;22.40;19.52;;;6.50;99.90;;;;;;4892323;29;20025;-81
2021/11/25 06:09:04;;;;;;;24.05;20.23;;;6.50;99.90;;;;;;4877314;29;20072;-79
2021/11/25 06:11:30;;;;;;;25.13;21.10;;;6.50;99.90;;;;;;4881553;29;20080;-79
2021/11/25 06:13:55;;;;;;;25.13;21.52;;;6.50;99.90;;;;;;4896059;29;20091;-78
2021/11/25 16:52:43;;;;;;;10.45;6.47;;;6.10;99.90;;;;;;4878766;29;20112;-78
2021/11/25 16:56:04;;;;;;;5.78;4.25;;;6.00;99.90;;;;;;4877230;29;20041;-85
2021/11/25 16:58:30;;;;;;;6.15;3.90;;;6.00;99.90;;;;;;4876951;29;20037;-80
2021/11/25 17:00:56;;;;;;;4.90;3.75;;;5.90;99.90;;;;;;4856317;29;20390;-75
2021/11/25 17:03:22;;;;;;;5.80;3.40;;;5.90;99.90;;;;;;4874978;29;20112;-80
2021/11/25 17:05:48;;;;;;;7.15;4.13;;;5.80;99.90;;;;;;4895195;29;20028;-81
2021/11/25 17:08:15;;;;;;;4.65;3.17;;;5.90;99.90;;;;;;4892404;29;20080;-75
2021/11/25 17:10:41;;;;;;;4.85;2.90;;;5.80;99.90;;;;;;4877138;29;20065;-87
2021/11/25 17:13:07;;;;;;;4.80;3.20;;;5.80;99.90;;;;;;4878516;29;20035;-78
2021/11/25 17:15:36;;;;;;;7.10;3.22;;;5.80;99.90;;;;;;4895306;29;20037;-84
2021/11/25 17:18:05;;;;;;;4.70;3.10;;;5.80;99.90;;;;;;4895073;29;20039;-89
2021/11/25 17:20:31;;;;;;;4.63;3.03;;;5.80;99.90;;;;;;4891131;29;20036;-87
2021/11/25 17:22:57;;;;;;;5.30;3.63;;;5.80;99.90;;;;;;4880330;29;20044;-90
2021/11/25 17:25:23;;;;;;;4.85;2.80;;;5.70;99.90;;;;;;4880831;29;20406;-81
2021/11/25 17:27:50;;;;;;;4.60;3.05;;;5.70;99.90;;;;;;4881173;29;20033;-77
2021/11/25 17:30:16;;;;;;;4.60;3.05;;;5.70;99.90;;;;;;4899088;29;20048;-78
2021/11/25 17:32:43;;;;;;;4.47;2.80;;;5.60;99.90;;;;;;4897411;29;20064;-79
2021/11/25 17:35:10;;;;;;;7.03;3.83;;;5.60;99.90;;;;;;4898485;29;20124;-78
2021/11/25 17:37:37;;;;;;;6.65;3.92;;;5.60;99.90;;;;;;4897564;29;20033;-81
2021/11/25 17:40:04;;;;;;;6.63;3.95;;;5.60;99.90;;;;;;4882386;29;20028;-77
2021/11/25 17:42:29;;;;;;;7.93;3.58;;;5.50;99.90;;;;;;4898005;29;20040;-82
2021/11/25 17:44:55;;;;;;;6.55;3.63;;;5.50;99.90;;;;;;4882148;29;20035;-79
2021/11/25 17:47:22;;;;;;;8.15;4.10;;;5.50;99.90;;;;;;4897779;29;20085;-78
2021/11/25 17:49:48;;;;;;;7.97;4.70;;;5.50;99.90;;;;;;4898213;29;20377;-77
2021/11/25 17:52:13;;;;;;;6.85;4.68;;;5.40;99.90;;;;;;4897038;29;20044;-80
2021/11/25 17:54:39;;;;;;;5.65;3.80;;;5.40;99.90;;;;;;4897645;29;20064;-78
2021/11/25 17:57:05;;;;;;;7.20;4.40;;;5.40;99.90;;;;;;4881546;29;20119;-78
2021/11/25 17:59:30;;;;;;;7.30;4.70;;;5.30;99.90;;;;;;4898406;29;20473;-76
2021/11/25 18:01:56;;;;;;;8.30;5.30;;;5.30;99.90;;;;;;4897900;29;20029;-78
2021/11/25 18:04:22;;;;;;;10.50;6.45;;;5.30;99.90;;;;;;4897545;29;20021;-79
2021/11/25 18:06:48;;;;;;;14.85;9.27;;;5.20;99.90;;;;;;4881638;29;20067;-78
2021/11/25 18:09:13;;;;;;;14.60;9.00;;;5.20;99.90;;;;;;4881127;29;20047;-83
2021/11/25 18:11:39;;;;;;;20.55;12.52;;;5.20;99.90;;;;;;4881532;29;20020;-82
2021/11/25 18:14:05;;;;;;;21.17;13.52;;;5.10;99.90;;;;;;4897358;29;20029;-77
2021/11/25 18:16:32;;;;;;;18.25;11.32;;;5.10;99.90;;;;;;4896456;29;20088;-82
2021/11/25 18:19:01;;;;;;;16.58;10.65;;;5.10;99.90;;;;;;4881503;29;20028;-80
2021/11/25 18:21:27;;;;;;;15.93;10.10;;;5.10;99.90;;;;;;4897848;29;20037;-77
2021/11/25 18:23:53;;;;;;;11.63;8.25;;;5.10;99.90;;;;;;4896998;29;20049;-77
2021/11/25 18:26:24;;;;;;;8.32;6.18;;;5.00;99.90;;;;;;4898104;29;20071;-77
2021/11/25 18:28:52;;;;;;;9.20;7.13;;;5.00;99.90;;;;;;4881462;29;20115;-76
2021/11/25 18:31:18;;;;;;;14.55;10.05;;;5.00;99.90;;;;;;4880598;29;20028;-80
2021/11/25 18:33:44;;;;;;;29.08;19.17;;;5.00;99.90;;;;;;4896513;29;20025;-79
2021/11/25 18:36:11;;;;;;;52.30;32.40;;;4.90;99.90;;;;;;4884801;29;20036;-74
2021/11/25 18:38:38;;;;;;;40.70;26.98;;;5.00;99.90;;;;;;4862069;29;20112;-85
2021/11/25 18:41:05;;;;;;;30.45;20.10;;;4.90;99.90;;;;;;4873277;29;20059;-84
2021/11/25 18:43:33;;;;;;;24.30;13.82;;;4.90;99.90;;;;;;4877691;29;20042;-83
2021/11/25 18:45:59;;;;;;;21.20;11.88;;;4.90;99.90;;;;;;4858443;29;20081;-78
2021/11/25 18:48:29;;;;;;;15.25;9.68;;;4.90;99.90;;;;;;4893739;29;20036;-75
2021/11/25 18:50:56;;;;;;;13.80;8.23;;;4.90;99.90;;;;;;4893781;29;20111;-78
2021/11/25 18:53:22;;;;;;;11.75;7.43;;;4.90;99.90;;;;;;4893957;29;20109;-79
2021/11/25 18:55:50;;;;;;;12.05;7.75;;;4.80;99.90;;;;;;4878259;29;20037;-78
2021/11/25 18:58:17;;;;;;;14.43;7.93;;;4.80;99.90;;;;;;4892774;29;20039;-78
2021/11/25 19:00:44;;;;;;;15.23;7.80;;;4.80;99.90;;;;;;4892636;29;20025;-78
2021/11/25 19:03:10;;;;;;;13.80;7.20;;;4.80;99.90;;;;;;4876984;29;20036;-74
2021/11/25 19:05:36;;;;;;;13.55;6.13;;;4.80;99.90;;;;;;4893420;29;20532;-80
2021/11/25 19:08:05;;;;;;;8.70;5.90;;;4.80;99.90;;;;;;4892979;29;20575;-84
2021/11/25 19:10:31;;;;;;;10.73;6.60;;;4.80;99.90;;;;;;4861852;29;20033;-72
2021/11/25 19:12:57;;;;;;;7.25;5.25;;;4.80;99.90;;;;;;4892536;29;20622;-77
2021/11/25 19:15:25;;;;;;;8.98;5.68;;;4.80;99.90;;;;;;4877804;29;20036;-81
2021/11/25 19:17:51;;;;;;;8.68;5.18;;;4.70;99.90;;;;;;4897638;29;20036;-75
2021/11/25 19:20:17;;;;;;;9.48;5.25;;;4.70;99.90;;;;;;4897188;29;20088;-75
2021/11/25 19:22:47;;;;;;;11.20;6.05;;;4.70;99.90;;;;;;4891365;29;20040;-76
2021/11/25 19:25:14;;;;;;;11.38;6.22;;;4.70;99.90;;;;;;4879120;29;20460;-76
2021/11/25 19:27:41;;;;;;;9.98;5.68;;;4.70;99.90;;;;;;4879194;29;20762;-73
2021/11/25 19:30:09;;;;;;;14.15;7.28;;;4.70;99.90;;;;;;4879246;29;20049;-73
2021/11/25 19:32:35;;;;;;;15.80;9.68;;;4.70;99.90;;;;;;4880590;29;20048;-75
2021/11/25 19:35:07;;;;;;;19.58;11.20;;;4.70;99.90;;;;;;4896483;29;20028;-75
2021/11/25 19:37:33;;;;;;;16.63;9.77;;;4.70;99.90;;;;;;4896052;29;20096;-77
2021/11/25 19:40:01;;;;;;;15.45;10.00;;;4.70;99.90;;;;;;4897921;29;20059;-75
2021/11/25 19:42:27;;;;;;;15.57;10.40;;;4.70;99.90;;;;;;4879604;29;20055;-76
2021/11/25 19:44:52;;;;;;;21.58;12.63;;;4.70;99.90;;;;;;4896013;29;20477;-81
2021/11/25 19:47:18;;;;;;;23.98;15.30;;;4.70;99.90;;;;;;4894912;29;20103;-76
2021/11/25 19:49:44;;;;;;;23.40;14.50;;;4.70;99.90;;;;;;4897088;29;20473;-75
2021/11/25 19:52:10;;;;;;;20.58;11.13;;;4.70;99.90;;;;;;4892105;29;20049;-75
2021/11/25 19:54:37;;;;;;;13.88;9.35;;;4.70;99.90;;;;;;4885993;29;20416;-75
2021/11/25 19:57:03;;;;;;;9.68;7.15;;;4.70;99.90;;;;;;4896361;29;20051;-75
2021/11/25 19:59:29;;;;;;;12.93;6.78;;;4.70;99.90;;;;;;4897344;29;20024;-76
2021/11/25 20:01:56;;;;;;;10.70;6.95;;;4.70;99.90;;;;;;4894674;29;20033;-76
2021/11/25 20:04:22;;;;;;;9.35;6.25;;;4.70;99.90;;;;;;4897256;29;20152;-76
2021/11/25 20:06:48;;;;;;;8.65;5.18;;;4.60;99.90;;;;;;4880326;29;20032;-76
2021/11/25 20:09:14;;;;;;;9.60;6.07;;;4.60;99.90;;;;;;4894872;29;20060;-76
2021/11/25 20:11:40;;;;;;;6.90;4.45;;;4.60;99.90;;;;;;4897885;29;20060;-77
2021/11/25 20:14:10;;;;;;;8.43;5.35;;;4.60;99.90;;;;;;4896327;29;20819;-80
2021/11/25 20:16:36;;;;;;;8.07;5.03;;;4.60;99.90;;;;;;4880252;29;20112;-84
2021/11/25 20:19:03;;;;;;;8.48;5.07;;;4.60;99.90;;;;;;4896467;29;20139;-78
2021/11/25 20:21:29;;;;;;;6.35;4.93;;;4.60;99.90;;;;;;4882773;29;20029;-84
2021/11/25 20:23:58;;;;;;;10.18;4.90;;;4.60;99.90;;;;;;4876564;29;20045;-73
2021/11/25 20:26:23;;;;;;;6.85;5.30;;;4.70;99.90;;;;;;4877665;29;20104;-75
2021/11/25 20:28:49;;;;;;;12.40;5.40;;;4.60;99.90;;;;;;4876195;29;20561;-73
2021/11/25 20:31:15;;;;;;;8.65;5.47;;;4.60;99.90;;;;;;4890042;29;20501;-75
2021/11/25 20:33:41;;;;;;;8.38;5.45;;;4.60;99.90;;;;;;4896803;29;20025;-75
2021/11/25 20:36:06;;;;;;;10.15;5.90;;;4.60;99.90;;;;;;4897346;29;20043;-76
2021/11/25 20:38:32;;;;;;;13.00;6.70;;;4.50;99.90;;;;;;4894282;29;20500;-73
2021/11/25 20:40:59;;;;;;;9.77;5.70;;;4.60;99.90;;;;;;4879501;29;20377;-75
2021/11/25 20:43:25;;;;;;;11.35;6.63;;;4.50;99.90;;;;;;4875642;29;20092;-76
2021/11/25 20:45:52;;;;;;;10.38;6.30;;;4.50;99.90;;;;;;4883155;29;20036;-76
2021/11/25 20:48:19;;;;;;;8.00;5.22;;;4.50;99.90;;;;;;4896728;29;20040;-80
2021/11/25 20:50:47;;;;;;;8.77;5.53;;;4.50;99.90;;;;;;4878879;29;20508;-76
2021/11/25 20:53:13;;;;;;;10.05;5.93;;;4.50;99.90;;;;;;4879121;29;20048;-75
2021/11/25 20:55:39;;;;;;;9.27;4.93;;;4.50;99.90;;;;;;4879674;29;20027;-76
2021/11/25 20:58:05;;;;;;;8.70;4.90;;;4.50;99.90;;;;;;4895964;29;20035;-77
2021/11/25 21:00:32;;;;;;;39.25;18.48;;;4.50;99.90;;;;;;4883825;29;20025;-75
2021/11/25 21:02:59;;;;;;;38.78;18.90;;;4.50;99.90;;;;;;4876063;29;20509;-75
2021/11/25 21:05:24;;;;;;;32.80;15.32;;;4.50;99.90;;;;;;4878851;29;20385;-75
2021/11/25 21:07:50;;;;;;;23.73;14.05;;;4.50;99.90;;;;;;4896764;29;20032;-76
2021/11/25 21:10:16;;;;;;;18.10;8.75;;;4.50;99.90;;;;;;4894308;29;20060;-76
2021/11/25 21:12:44;;;;;;;15.07;7.57;;;4.50;99.90;;;;;;4876486;29;20024;-77
2021/11/25 21:15:14;;;;;;;11.02;6.45;;;4.40;99.90;;;;;;4879772;29;20453;-82
2021/11/25 21:17:41;;;;;;;12.23;6.57;;;4.50;99.90;;;;;;4895256;29;20036;-78
2021/11/25 21:20:07;;;;;;;13.98;6.25;;;4.40;99.90;;;;;;4868001;29;20485;-79
2021/11/25 21:22:33;;;;;;;11.48;6.55;;;4.40;99.90;;;;;;4878333;29;20481;-77
2021/11/25 21:25:03;;;;;;;10.10;6.38;;;4.40;99.90;;;;;;4894559;29;20044;-79
2021/11/25 21:27:28;;;;;;;11.43;6.35;;;4.40;99.90;;;;;;4895235;29;20107;-81
2021/11/25 21:29:54;;;;;;;11.60;6.57;;;4.40;99.90;;;;;;4895446;29;20032;-79
2021/11/25 21:32:19;;;;;;;10.43;6.28;;;4.40;99.90;;;;;;4878111;29;20127;-82
2021/11/25 21:34:45;;;;;;;8.77;5.72;;;4.40;99.90;;;;;;4877872;29;20044;-78
2021/11/25 21:37:11;;;;;;;9.40;5.25;;;4.40;99.90;;;;;;4889655;29;20025;-77
2021/11/25 21:39:36;;;;;;;7.53;5.60;;;4.40;99.90;;;;;;4877112;29;20123;-76
2021/11/25 21:42:04;;;;;;;6.70;5.30;;;4.40;99.90;;;;;;4895557;29;20499;-75
2021/11/25 21:44:31;;;;;;;9.60;5.20;;;4.40;99.90;;;;;;4895179;29;20031;-81
2021/11/25 21:46:57;;;;;;;10.50;5.30;;;4.40;99.90;;;;;;4892366;29;20200;-77
2021/11/25 21:49:23;;;;;;;11.05;6.20;;;4.30;99.90;;;;;;4878296;29;20140;-76
2021/11/25 21:51:49;;;;;;;10.85;5.82;;;4.30;99.90;;;;;;4894872;29;20513;-74
2021/11/25 21:54:15;;;;;;;8.98;5.93;;;4.30;99.90;;;;;;4893314;29;20040;-75
2021/11/25 21:56:41;;;;;;;10.90;5.38;;;4.30;99.90;;;;;;4895170;29;20036;-75
2021/11/25 21:59:06;;;;;;;6.93;4.53;;;4.20;99.90;;;;;;4894339;29;20043;-75
2021/11/25 22:01:32;;;;;;;7.28;4.82;;;4.20;99.90;;;;;;4893176;29;20045;-75
2021/11/25 22:03:59;;;;;;;7.72;5.35;;;4.30;99.90;;;;;;4877484;29;20032;-73
2021/11/25 22:06:24;;;;;;;7.78;4.93;;;4.20;99.90;;;;;;4880326;29;20032;-80
2021/11/25 22:08:50;;;;;;;8.00;4.75;;;4.20;99.90;;;;;;4879917;29;20385;-75
2021/11/25 22:11:16;;;;;;;7.20;4.70;;;4.20;99.90;;;;;;4892376;29;20028;-74
2021/11/25 22:13:41;;;;;;;11.68;6.82;;;4.20;99.90;;;;;;4897341;29;20071;-75
2021/11/25 22:16:07;;;;;;;7.80;5.53;;;4.20;99.90;;;;;;4897092;29;20036;-80
2021/11/25 22:18:37;;;;;;;11.15;5.68;;;4.10;99.90;;;;;;4891167;29;20040;-83
2021/11/25 22:26:26;;;;;;;7.88;4.97;;;4.10;99.90;;;;;;4882741;29;20548;-76
2021/11/25 22:28:51;;;;;;;7.55;4.85;;;4.10;99.90;;;;;;4879486;29;20063;-75
2021/11/25 22:31:17;;;;;;;9.77;5.85;;;4.10;99.90;;;;;;4897545;29;20032;-84
2021/11/25 22:33:42;;;;;;;7.43;5.40;;;4.10;99.90;;;;;;4877768;29;20032;-77
2021/11/25 22:36:10;;;;;;;8.13;5.78;;;4.10;99.90;;;;;;4879406;29;20029;-81
2021/11/25 22:38:36;;;;;;;10.40;6.55;;;4.20;99.90;;;;;;4897417;29;20036;-79
2021/11/25 22:41:01;;;;;;;10.73;5.60;;;4.20;99.90;;;;;;4897965;29;20021;-77
2021/11/25 22:43:27;;;;;;;10.32;6.25;;;4.20;99.90;;;;;;4896487;29;20484;-77
2021/11/25 22:45:53;;;;;;;10.30;6.45;;;4.20;99.90;;;;;;4881131;29;20052;-80
2021/11/25 22:48:18;;;;;;;11.32;6.93;;;4.20;99.90;;;;;;4896620;29;20084;-76
2021/11/25 22:50:46;;;;;;;8.23;5.40;;;4.30;99.90;;;;;;4895144;29;20499;-78
2021/11/25 22:53:12;;;;;;;10.18;5.50;;;4.30;99.90;;;;;;4881027;29;20214;-75
2021/11/25 22:55:37;;;;;;;10.63;5.45;;;4.20;99.90;;;;;;4877670;29;20048;-76
2021/11/25 22:58:03;;;;;;;12.38;6.00;;;4.20;99.90;;;;;;4895151;29;20397;-76
2021/11/25 23:00:41;;;;;;;17.85;9.13;;;4.20;99.90;;;;;;4897219;29;20104;-77
2021/11/25 23:03:07;;;;;;;20.02;9.85;;;4.20;99.90;;;;;;4871629;29;20485;-76
2021/11/25 23:05:33;;;;;;;31.10;17.42;;;4.20;99.90;;;;;;4896700;29;20036;-77
2021/11/25 23:08:00;;;;;;;35.95;21.83;;;4.20;99.90;;;;;;4897623;29;20054;-79
2021/11/25 23:10:27;;;;;;;39.90;24.83;;;4.20;99.90;;;;;;4897494;29;20025;-76
2021/11/25 23:12:53;;;;;;;34.55;21.80;;;4.20;99.90;;;;;;4896868;29;20069;-76
2021/11/25 23:15:19;;;;;;;41.00;23.10;;;4.20;99.90;;;;;;4883205;29;20029;-85
2021/11/25 23:17:44;;;;;;;35.50;20.73;;;4.20;99.90;;;;;;4877099;29;20064;-77
2021/11/25 23:20:12;;;;;;;24.42;14.57;;;4.20;99.90;;;;;;4877486;29;20028;-77
2021/11/25 23:22:39;;;;;;;20.30;11.02;;;4.20;99.90;;;;;;4878406;29;20073;-76
2021/11/25 23:25:05;;;;;;;17.60;12.00;;;4.30;99.90;;;;;;4861624;29;20085;-83
2021/11/25 23:27:31;;;;;;;38.20;22.80;;;4.30;99.90;;;;;;4878027;29;20029;-83
2021/11/25 23:29:56;;;;;;;34.80;20.70;;;4.30;99.90;;;;;;4878299;29;20359;-80
2021/11/25 23:32:22;;;;;;;26.63;16.13;;;4.40;99.90;;;;;;4861515;29;20058;-74
2021/11/25 23:34:48;;;;;;;19.40;11.65;;;4.40;99.90;;;;;;4878652;29;20048;-74
2021/11/25 23:37:13;;;;;;;16.58;9.27;;;4.50;99.90;;;;;;4867219;29;20029;-76
2021/11/25 23:39:39;;;;;;;13.27;7.43;;;4.50;99.90;;;;;;4893225;29;20028;-79
2021/11/25 23:42:05;;;;;;;14.70;8.63;;;4.60;99.90;;;;;;4880469;29;20024;-76
2021/11/25 23:44:30;;;;;;;16.02;10.55;;;4.60;99.90;;;;;;4894866;29;20041;-76
2021/11/25 23:46:57;;;;;;;16.75;11.48;;;4.60;99.90;;;;;;4875030;29;20417;-76
2021/11/25 23:49:25;;;;;;;14.25;8.77;;;4.60;99.90;;;;;;4877852;29;20021;-75
2021/11/25 23:51:52;;;;;;;11.90;6.90;;;4.70;99.90;;;;;;4890046;29;20041;-77
2021/11/25 23:54:19;;;;;;;9.45;6.35;;;4.70;99.90;;;;;;4880231;29;20033;-76
2021/11/25 23:56:45;;;;;;;8.93;6.05;;;4.70;99.90;;;;;;4876824;29;20024;-76
2021/11/25 23:59:11;;;;;;;8.07;6.15;;;4.70;99.90;;;;;;4896408;29;20397;-75
